Latest Coastal Weather Observations for Maroochydore

IDQ60701

Issued at 6:21 pm EST Monday 2 May 2016 (issued every 10 minutes, with the page automatically refreshed every 10 minutes)

About coastal observations | Map of coastal stations | Coastal observations for QLD | Marine services | Other Formats
Station Details ID: 040861 Name: SUNSHINE COAST AIRPORT Lat: -26.60 Lon: 153.09 Height: 3.3 m
Data from the previous 72 hours. | See also: Recent months at Maroochydore
Date/Time
EST
Temp

°C
Wind Pressure Rain
since 9am
mm
Weather Cloud Vis
km
Sea
Height
m
Swell
Dir
 
Speed
knots
Gust
knots
hPa Trend Height
m
Period
s
Dir
02/06:00pm 23.1 CALM 0 0 1014.5 - 0.2 - - 10 - - - -
02/05:30pm 23.2 CALM 0 0 1014.3 - 0.2 - - 10 - - - -
02/05:00pm 23.6 CALM 0 3 1014.0 - 0.2 - - 10 - - - -
02/04:30pm 24.2 ESE 2 5 1013.8 - 0.2 - - 10 - - - -
02/04:00pm 24.7 E 5 6 1013.4 - 0.2 - - 10 - - - -
02/03:30pm 25.0 E 6 7 1013.3 - 0.2 - - 10 - - - -
02/03:00pm 25.5 E 7 9 1013.2 - 0.2 - - 10 - - - -
02/02:30pm 25.9 E 6 9 1013.6 - 0.2 - - 10 - - - -
02/02:00pm 26.1 E 7 9 1013.6 - 0.2 - - 10 - - - -
02/01:30pm 26.0 E 9 11 1013.8 - 0.2 - - 10 - - - -
02/01:00pm 25.8 ESE 8 11 1014.4 - 0.2 - - 10 - - - -
02/12:30pm 26.2 ESE 9 11 1014.7 - 0.2 - - 10 - - - -
02/12:00pm 26.2 ESE 9 12 1015.0 - 0.2 - - 10 - - - -
02/11:30am 26.6 ESE 9 12 1015.4 - 0.2 - - 10 - - - -
02/11:00am 25.9 ESE 8 11 1015.9 - 0.2 - - 10 - - - -
02/10:30am 25.9 SE 7 10 1016.2 - 0.2 - - 10 - - - -
02/10:00am 25.3 ESE 7 8 1016.3 - 0.0 - - 10 - - - -
02/09:30am 25.0 SSE 4 6 1016.8 - 0.0 - - 10 - - - -
02/09:00am 23.4 S 5 7 1016.9 - 9.0 - - 10 - - - -
02/08:30am 22.4 SSW 5 6 1016.7 - 9.0 - - 10 - - - -
02/08:00am 21.4 S 5 7 1016.7 - 9.0 - - 10 - - - -
02/07:30am 20.7 SSW 6 8 1016.6 - 9.0 - - 10 - - - -
02/07:00am 20.0 S 4 6 1016.4 - 9.0 - - 10 - - - -
02/06:30am 19.7 S 7 9 1016.4 - 9.0 - - 10 - - - -
02/06:00am 19.2 CALM 0 0 1015.9 - 9.0 - - 10 - - - -
02/05:30am 19.2 SW 3 4 1015.4 - 9.0 - - 10 - - - -
02/05:04am 19.1 CALM 0 0 1015.2 - 9.0 - Partly cloudy 10 - - - -
02/05:00am 19.2 CALM 0 0 1015.2 - 9.0 - Partly cloudy 10 - - - -
02/04:58am 19.1 CALM 0 0 1015.2 - 9.0 - Partly cloudy 10 - - - -
02/04:30am 19.4 SW 4 5 1014.9 - 9.0 - Cloudy 2 - - - -
02/04:10am 19.5 SW 5 8 1014.8 - 9.0 - Partly cloudy 1 - - - -
02/04:04am 19.5 SW 7 8 1014.7 - 9.0 - Partly cloudy 6 - - - -
02/04:00am 19.5 WSW 7 8 1014.7 - 9.0 - - 10 - - - -
02/03:30am 19.2 NNW 2 4 1014.1 - 9.0 - - 10 - - - -
02/03:19am 19.2 NNW 3 5 1014.1 - 9.0 - Partly cloudy 10 - - - -
02/03:00am 19.1 NNW 3 4 1014.3 - 9.0 - Partly cloudy 3 - - - -
02/02:51am 19.1 NW 3 5 1014.4 - 9.0 - Partly cloudy 7 - - - -
02/02:30am 19.2 W 3 4 1014.7 - 9.0 - Cloudy 0.6 - - - -
02/02:00am 19.7 W 4 6 1015.1 - 9.0 - Cloudy 0.4 - - - -
02/01:30am 19.7 CALM 0 0 1015.4 - 9.0 - Cloudy 0.5 - - - -
02/01:05am 19.7 CALM 0 3 1015.7 - 9.0 - Partly cloudy 3 - - - -
02/01:00am 19.6 W 2 4 1015.7 - 9.0 - Partly cloudy 6 - - - -
02/12:55am 19.7 W 3 5 1015.7 - 9.0 - Partly cloudy 6 - - - -
02/12:53am 19.8 W 3 5 1015.7 - 9.0 - Partly cloudy 8 - - - -
02/12:46am 19.9 W 3 7 1015.7 - 9.0 - Partly cloudy 10 - - - -
02/12:30am 19.4 CALM 0 0 1015.5 - 9.0 - Partly cloudy 1 - - - -
02/12:02am 20.1 CALM 0 0 1016.2 - 9.0 - Partly cloudy 1 - - - -
02/12:00am 20.0 CALM 0 0 1016.2 - 9.0 - Cloudy 0.9 - - - -
 
Date/Time
EST
Temp

°C
Wind Pressure Rain
since 9am
mm
Weather Cloud Vis
km
Sea
Height
m
Swell
Dir
 
Speed
knots
Gust
knots
hPa Trend Height
m
Period
s
Dir
01/11:59pm 20.0 CALM 0 0 1016.2 - 9.0 - Partly cloudy 0.9 - - - -
01/11:30pm 20.3 CALM 0 0 1016.5 - 9.0 - Partly cloudy 0.2 - - - -
01/11:00pm 20.4 CALM 0 2 1016.8 - 9.0 - Cloudy 0.3 - - - -
01/10:30pm 20.6 WSW 4 7 1016.8 - 9.0 - Cloudy 0.3 - - - -
01/10:00pm 20.3 W 5 8 1016.9 - 9.0 - Cloudy 0.6 - - - -
01/09:31pm 20.7 SW 4 7 1016.9 - 9.0 - Partly cloudy 2 - - - -
01/09:30pm 20.8 SW 4 7 1016.9 - 9.0 - Partly cloudy 2 - - - -
01/09:25pm 20.8 SW 5 7 1017.0 - 9.0 - Partly cloudy 5 - - - -
01/09:00pm 20.6 W 4 5 1016.6 - 9.0 - - 10 - - - -
01/08:41pm 20.8 W 4 4 1016.5 - 9.0 - Partly cloudy 10 - - - -
01/08:30pm 21.0 W 5 6 1016.5 - 9.0 - Partly cloudy 10 - - - -
01/08:00pm 21.8 SSW 4 5 1016.7 - 9.0 - Cloudy 10 - - - -
01/07:30pm 21.4 E 1 4 1016.4 - 9.0 - Cloudy 10 - - - -
01/07:06pm 21.2 CALM 0 0 1016.1 - 9.0 - Partly cloudy 10 - - - -
01/07:00pm 21.2 S 1 3 1016.0 - 9.0 - Partly cloudy 10 - - - -
01/06:30pm 21.4 CALM 0 0 1015.9 - 9.0 - Partly cloudy 10 - - - -
01/06:00pm 22.0 SSW 5 7 1015.9 - 9.0 - Mostly cloudy 10 - - - -
01/05:30pm 22.3 S 4 6 1015.7 - 9.0 - Cloudy 10 - - - -
01/05:00pm 22.5 S 5 7 1015.6 - 9.0 - Cloudy 10 - - - -
01/04:30pm 22.7 S 6 8 1015.5 - 9.0 - Partly cloudy 10 - - - -
01/04:24pm 22.7 S 5 8 1015.5 - 9.0 - Partly cloudy 10 - - - -
01/04:00pm 23.1 S 8 11 1015.5 - 9.0 - Partly cloudy 10 - - - -
01/03:30pm 23.1 S 11 14 1015.3 - 9.0 - Partly cloudy 10 - - - -
01/03:07pm 23.6 S 10 14 1014.8 - 9.0 - Partly cloudy 10 - - - -
01/03:00pm 23.3 S 9 14 1014.7 - 9.0 - Cloudy 7 - - - -
01/02:30pm 23.2 S 10 13 1014.6 - 8.8 - Partly cloudy 5 - - - -
01/02:11pm 24.1 SSE 8 11 1014.5 - 8.4 - Partly cloudy 6 - - - -
01/02:00pm 24.8 SE 8 11 1014.5 - 8.4 - Partly cloudy 10 - - - -
01/01:30pm 24.4 SE 6 7 1014.6 - 8.4 - Partly cloudy 10 - - - -
01/01:00pm 25.0 SE 6 8 1014.9 - 8.4 - Partly cloudy 10 - - - -
01/12:30pm 24.0 ESE 6 7 1015.5 - 8.4 - Partly cloudy 10 - - - -
01/12:00pm 23.6 E 5 7 1016.0 - 8.4 - Cloudy 10 - - - -
01/11:53am 23.6 E 6 7 1016.0 - 8.4 - Partly cloudy 9 - - - -
01/11:30am 23.9 ENE 6 8 1016.4 - 8.4 - Partly cloudy 4 - - - -
01/11:00am 23.6 NE 7 9 1017.0 - 8.0 - Partly cloudy 5 - - - -
01/10:59am 23.8 NE 7 9 1017.1 - 8.0 - Partly cloudy 6 - - - -
01/10:41am 23.2 NE 6 8 1017.5 - 8.0 - Partly cloudy 9 - - - -
01/10:36am 22.8 NNE 6 8 1017.5 - 8.0 - Partly cloudy 8 - - - -
01/10:30am 23.0 NNE 5 7 1017.6 - 8.0 - Partly cloudy 6 - - - -
01/10:11am 22.3 NNE 6 8 1018.1 - 7.6 - Partly cloudy 5 - - - -
01/10:00am 22.4 NNE 10 13 1018.3 - 7.0 - Partly cloudy 4 - - - -
01/09:30am 22.5 N 8 10 1018.5 - 3.4 - Partly cloudy 3 - - - -
01/09:00am 22.7 N 8 11 1018.5 - 47.2 - Cloudy 4 - - - -
01/08:30am 22.9 N 6 8 1018.3 - 42.6 - Partly cloudy 6 - - - -
01/08:00am 22.8 N 9 12 1018.1 - 38.8 - Partly cloudy 5 - - - -
01/07:41am 23.5 NE 8 11 1018.0 - 38.0 - Partly cloudy 5 - - - -
01/07:30am 23.4 NE 9 12 1018.1 - 37.8 - Partly cloudy 6 - - - -
01/07:27am 23.3 NE 9 12 1018.1 - 37.8 - Partly cloudy 6 - - - -
01/07:00am 23.1 NE 9 11 1017.9 - 37.8 - Cloudy 10 - - - -
01/06:30am 21.6 CALM 0 0 1017.5 - 37.8 - Partly cloudy 10 - - - -
01/06:00am 21.3 WSW 4 6 1017.5 - 37.6 - Mostly cloudy 10 - - - -
01/05:30am 21.2 SW 5 7 1017.3 - 37.6 - Partly cloudy 10 - - - -
01/05:00am 21.2 W 4 6 1017.2 - 37.2 - Partly cloudy 10 - - - -
01/04:30am 21.2 S 6 8 1017.0 - 37.2 - Partly cloudy 10 - - - -
01/04:06am 21.2 SW 7 9 1017.0 - 37.2 - Partly cloudy 10 - - - -
01/04:00am 21.2 W 3 9 1017.0 - 37.2 - Partly cloudy 8 - - - -
01/03:45am 21.1 WSW 6 9 1017.1 - 36.6 - Partly cloudy 6 - - - -
01/03:30am 21.1 SW 7 10 1017.1 - 35.6 - Partly cloudy 10 - - - -
01/03:00am 21.3 WSW 6 8 1017.2 - 35.6 - Cloudy 10 - - - -
01/02:30am 21.4 WSW 6 8 1017.6 - 35.2 - Partly cloudy 10 - - - -
01/02:26am 21.3 W 5 8 1017.7 - 35.2 - Partly cloudy 10 - - - -
01/02:02am 21.4 SW 7 11 1017.7 - 33.6 - Partly cloudy 6 - - - -
01/02:00am 21.5 WSW 7 11 1017.8 - 33.0 - Partly cloudy 10 - - - -
01/01:30am 21.6 SSW 5 6 1018.0 - 32.4 - Partly cloudy 10 - - - -
01/01:21am 21.6 SW 6 8 1018.1 - 32.2 - Partly cloudy 10 - - - -
01/01:00am 21.6 SSW 7 9 1018.2 - 31.6 - Partly cloudy 4 - - - -
01/12:47am 21.6 SSW 8 10 1018.3 - 29.6 - Partly cloudy 6 - - - -
01/12:34am 21.6 SSW 9 11 1018.3 - 28.8 - Partly cloudy 10 - - - -
01/12:30am 21.6 SSW 9 13 1018.3 - 28.8 - Partly cloudy 9 - - - -
01/12:08am 21.6 S 5 7 1019.0 - 26.8 - Partly cloudy 6 - - - -
01/12:00am 21.5 SW 5 7 1018.8 - 25.8 - Cloudy 10 - - - -
 
Date/Time
EST
Temp

°C
Wind Pressure Rain
since 9am
mm
Weather Cloud Vis
km
Sea
Height
m
Swell
Dir
 
Speed
knots
Gust
knots
hPa Trend Height
m
Period
s
Dir
30/11:54pm 21.5 SW 5 7 1018.8 - 25.8 - Partly cloudy 10 - - - -
30/11:48pm 21.5 SW 6 9 1018.7 - 25.8 - Partly cloudy 10 - - - -
30/11:30pm 21.5 SW 6 8 1018.9 - 24.0 - Partly cloudy 5 - - - -
30/11:26pm 21.5 WSW 6 8 1019.0 - 23.6 - Partly cloudy 6 - - - -
30/11:00pm 21.6 SW 5 7 1019.2 - 23.2 - Partly cloudy 10 - - - -
30/10:47pm 21.7 SSW 6 7 1019.4 - 23.2 - Partly cloudy 10 - - - -
30/10:30pm 21.7 WSW 4 6 1019.4 - 23.2 - Partly cloudy 8 - - - -
30/10:13pm 21.6 N 4 5 1019.5 - 23.2 - Partly cloudy 7 - - - -
30/10:00pm 21.6 NNE 4 6 1019.5 - 23.0 - Partly cloudy 6 - - - -
30/09:31pm 22.0 NE 6 8 1019.9 - 22.6 - Partly cloudy 6 - - - -
30/09:30pm 22.0 NE 6 8 1019.9 - 22.6 - Partly cloudy 7 - - - -
30/09:08pm 21.6 NNE 7 9 1020.0 - 22.4 - Partly cloudy 7 - - - -
30/09:00pm 21.6 NE 8 10 1020.1 - 22.4 - Cloudy 10 - - - -
30/08:30pm 21.8 CALM 0 0 1020.0 - 22.4 - Partly cloudy 10 - - - -
30/08:00pm 21.8 CALM 0 3 1019.8 - 22.4 - Partly cloudy 10 - - - -
30/07:46pm 21.9 SSW 3 5 1019.7 - 22.4 - Partly cloudy 10 - - - -
30/07:34pm 21.9 S 6 8 1019.6 - 22.4 - Partly cloudy 6 - - - -
30/07:32pm 21.8 S 6 8 1019.6 - 22.2 - Partly cloudy 7 - - - -
30/07:30pm 21.8 S 6 8 1019.6 - 22.0 - Partly cloudy 8 - - - -
30/07:00pm 21.4 SW 3 5 1019.2 - 21.6 - Partly cloudy 10 - - - -
30/06:32pm 21.4 WNW 3 5 1019.1 - 21.6 - Partly cloudy 10 - - - -
30/06:30pm 21.3 WNW 3 4 1019.1 - 21.6 - Partly cloudy 10 - - - -
30/06:15pm 21.4 NNW 3 4 1019.1 - 21.6 - Partly cloudy 5 - - - -
30/06:09pm 21.4 N 3 4 1019.1 - 21.6 - Partly cloudy 6 - - - -
30/06:00pm 21.4 ENE 1 3 1019.1 - 21.4 - Cloudy 10 - - - -
30/05:59pm 21.4 E 1 3 1019.1 - 21.4 - Partly cloudy 10 - - - -
30/05:36pm 21.6 CALM 0 1 1018.9 - 21.2 - Partly cloudy 4 - - - -
30/05:30pm 21.5 ESE 1 4 1018.8 - 20.6 - Partly cloudy 4 - - - -
30/05:00pm 21.9 E 6 9 1018.7 - 19.2 - Partly cloudy 6 - - - -
30/04:49pm 22.0 ENE 7 10 1018.7 - 19.0 - Partly cloudy 6 - - - -
30/04:41pm 21.9 ENE 8 10 1018.6 - 19.0 - Partly cloudy 9 - - - -
30/04:30pm 21.7 ENE 6 10 1018.5 - 19.0 - Partly cloudy 10 - - - -
30/04:26pm 22.0 N 3 10 1018.5 - 19.0 - Partly cloudy 10 - - - -
30/04:00pm 22.4 CALM 0 0 1018.2 - 19.0 - Partly cloudy 10 - - - -
30/03:54pm 22.3 CALM 0 0 1018.3 - 19.0 - Partly cloudy 10 - - - -
30/03:44pm 22.2 CALM 0 0 1018.2 - 19.0 - Partly cloudy 6 - - - -
30/03:30pm 22.1 CALM 0 0 1018.4 - 18.8 - Partly cloudy 5 - - - -
30/03:00pm 22.1 NNE 3 5 1018.3 - 13.8 - Cloudy 3 - - - -
30/02:37pm 22.5 N 11 13 1018.1 - 6.2 - Partly cloudy 2 - - - -
30/02:34pm 23.2 SW 4 9 1018.1 - 4.4 - Partly cloudy 5 - - - -
30/02:30pm 23.3 SSW 4 7 1017.9 - 2.8 - Partly cloudy 10 - - - -
30/02:00pm 23.2 S 7 8 1017.9 - 2.8 - Partly cloudy 10 - - - -
30/01:33pm 23.4 S 8 9 1018.2 - 2.8 - Partly cloudy 10 - - - -
30/01:30pm 23.0 S 7 9 1018.2 - 2.8 - Partly cloudy 10 - - - -
30/01:00pm 23.8 ENE 4 7 1018.6 - 1.2 - Partly cloudy 4 - - - -
30/12:47pm 24.4 ENE 6 9 1018.8 - 0.0 - Partly cloudy 6 - - - -
30/12:30pm 24.7 SE 7 9 1018.9 - 0.0 - Partly cloudy 10 - - - -
30/12:00pm 24.9 SE 9 11 1019.3 - 0.0 - Cloudy 10 - - - -
30/11:30am 25.6 SE 7 10 1019.8 - 0.0 - Partly cloudy 10 - - - -
30/11:00am 25.5 SE 7 10 1020.3 - 0.0 - Cloudy 10 - - - -
30/10:30am 25.9 ESE 5 7 1020.7 - 0.0 - Partly cloudy 10 - - - -
30/10:00am 26.0 SE 5 7 1021.0 - 0.0 - Partly cloudy 10 - - - -
30/09:32am 25.1 S 5 8 1021.1 - 0.0 - Partly cloudy 10 - - - -
30/09:30am 25.2 S 5 8 1021.2 - 0.0 - Partly cloudy 10 - - - -
30/09:07am 24.3 S 5 8 1021.1 - 0.0 - Partly cloudy 10 - - - -
30/09:00am 24.1 S 5 7 1021.1 - 18.8 - Mostly cloudy 10 - - - -
30/08:30am 22.8 SSW 5 8 1021.1 - 18.8 - Partly cloudy 10 - - - -
30/08:00am 21.7 SSW 5 7 1021.1 - 18.8 - Partly cloudy 10 - - - -
30/07:30am 20.8 SSW 3 5 1021.1 - 18.8 - Partly cloudy 10 - - - -
30/07:00am 20.1 WSW 4 5 1020.7 - 18.4 - Partly cloudy 10 - - - -
30/06:30am 20.1 SW 3 4 1020.5 - 18.2 - Partly cloudy 10 - - - -
30/06:00am 19.5 WSW 5 6 1020.0 - 18.0 - Mostly clear 10 - - - -
30/05:30am 19.6 SW 4 5 1019.7 - 18.0 - Partly cloudy 10 - - - -
30/05:00am 19.6 WSW 4 5 1019.5 - 18.0 - Partly cloudy 10 - - - -
30/04:30am 19.9 SW 3 5 1019.4 - 18.0 - Partly cloudy 10 - - - -
30/04:00am 20.0 SW 4 5 1019.5 - 18.0 - Partly cloudy 10 - - - -
30/03:30am 20.3 SW 3 5 1019.5 - 18.0 - Partly cloudy 10 - - - -
30/03:00am 20.5 W 4 6 1019.6 - 18.0 - Cloudy 10 - - - -
30/02:30am 20.7 SSW 5 6 1019.8 - 18.0 - Partly cloudy 10 - - - -
30/02:00am 20.7 SSW 1 4 1020.0 - 18.0 - Partly cloudy 10 - - - -
30/01:30am 20.7 WSW 2 6 1020.3 - 18.0 - Partly cloudy 10 - - - -
30/01:00am 20.9 SW 3 5 1020.7 - 18.0 - Cloudy 10 - - - -
30/12:30am 20.9 WSW 6 8 1021.0 - 18.0 - Partly cloudy 10 - - - -
30/12:00am 21.0 S 1 5 1021.2 - 18.0 - Cloudy 10 - - - -
 
Date/Time
EST
Temp

°C
Wind Pressure Rain
since 9am
mm
Weather Cloud Vis
km
Sea
Height
m
Swell
Dir
 
Speed
knots
Gust
knots
hPa Trend Height
m
Period
s
Dir
29/11:30pm 21.4 SSW 3 6 1021.4 - 18.0 - Partly cloudy 10 - - - -
29/11:00pm 21.4 NNE 3 7 1021.7 - 17.8 - Partly cloudy 10 - - - -
29/10:30pm 21.9 NW 3 5 1021.7 - 17.6 - Partly cloudy 10 - - - -
29/10:00pm 23.6 ENE 11 13 1021.6 - 17.6 - Partly cloudy 10 - - - -
29/09:30pm 23.4 E 8 10 1021.7 - 17.6 - Partly cloudy 10 - - - -
29/09:00pm 23.4 E 9 13 1021.6 - 17.6 - Cloudy 10 - - - -
29/08:30pm 23.2 E 10 14 1021.4 - 17.6 - Partly cloudy 10 - - - -
29/08:00pm 21.9 ESE 5 9 1021.4 - 17.6 - Partly cloudy 10 - - - -
29/07:34pm 22.7 ESE 7 11 1021.3 - 16.2 - Partly cloudy 6 - - - -
29/07:30pm 22.7 SE 8 11 1021.3 - 15.6 - Partly cloudy 10 - - - -
29/07:00pm 22.4 ESE 13 18 1020.8 - 15.6 - Partly cloudy 10 - - - -
29/06:30pm 22.5 ESE 11 15 1020.6 - 15.6 - Partly cloudy 10 - - - -

Other Formats:

Comma delimited format used in spreadsheet applications
http://www.bom.gov.au/fwo/IDQ60701/IDQ60701.94569.axf

JavaScript Object Notation format (JSON) in row-major order
http://www.bom.gov.au/fwo/IDQ60701/IDQ60701.94569.json